TimeCDT,TemperatureF,Dew PointF,Humidity,Sea Level PressureIn,VisibilityMPH,Wind Direction,Wind SpeedMPH,Gust SpeedMPH,PrecipitationIn,Events,Conditions,WindDirDegrees,DateUTC
12:15 AM,62.6,53.6,72,29.84,10.0,East,4.6,-,N/A,,Clear,80,2013-05-16 05:15:00
12:35 AM,60.8,53.6,77,29.84,10.0,East,4.6,-,N/A,,Clear,90,2013-05-16 05:35:00
12:55 AM,60.8,53.6,77,29.84,10.0,East,3.5,-,N/A,,Clear,90,2013-05-16 05:55:00
1:15 AM,60.8,53.6,77,29.84,10.0,ESE,5.8,-,N/A,,Clear,110,2013-05-16 06:15:00
1:55 AM,59.0,51.8,77,29.82,10.0,ENE,4.6,-,N/A,,Clear,70,2013-05-16 06:55:00
2:15 AM,59.0,51.8,77,29.82,10.0,ENE,3.5,-,N/A,,Clear,60,2013-05-16 07:15:00
2:55 AM,57.2,51.8,82,29.83,10.0,Calm,Calm,-,N/A,,Clear,0,2013-05-16 07:55:00
3:15 AM,55.4,51.8,88,29.84,10.0,Calm,Calm,-,N/A,,Clear,0,2013-05-16 08:15:00
3:35 AM,55.4,51.8,88,29.84,10.0,Calm,Calm,-,N/A,,Clear,0,2013-05-16 08:35:00
3:55 AM,55.4,51.8,88,29.84,10.0,East,3.5,-,N/A,,Clear,80,2013-05-16 08:55:00
4:15 AM,53.6,50.0,88,29.85,10.0,Calm,Calm,-,N/A,,Clear,0,2013-05-16 09:15:00
4:35 AM,53.6,51.8,94,29.84,10.0,ENE,3.5,-,N/A,,Clear,60,2013-05-16 09:35:00
4:55 AM,51.8,50.0,94,29.85,10.0,Calm,Calm,-,N/A,,Clear,0,2013-05-16 09:55:00
5:15 AM,51.8,50.0,94,29.84,10.0,NE,5.8,-,N/A,,Clear,50,2013-05-16 10:15:00
5:35 AM,51.8,50.0,94,29.85,10.0,Calm,Calm,-,N/A,,Clear,0,2013-05-16 10:35:00
5:55 AM,51.8,50.0,94,29.85,10.0,Calm,Calm,-,N/A,,Clear,0,2013-05-16 10:55:00
6:15 AM,51.8,51.8,100,29.86,7.0,West,3.5,-,N/A,,Clear,280,2013-05-16 11:15:00
6:35 AM,50.0,50.0,100,29.87,7.0,WSW,5.8,-,N/A,,Clear,250,2013-05-16 11:35:00
6:55 AM,51.8,50.0,94,29.87,7.0,SW,4.6,-,N/A,,Clear,230,2013-05-16 11:55:00
7:15 AM,51.8,50.0,94,29.88,7.0,WSW,5.8,-,N/A,,Clear,250,2013-05-16 12:15:00
7:35 AM,51.8,51.8,100,29.88,7.0,Calm,Calm,-,N/A,,Clear,0,2013-05-16 12:35:00
7:55 AM,55.4,53.6,94,29.88,7.0,Calm,Calm,-,N/A,,Clear,0,2013-05-16 12:55:00
8:15 AM,59.0,55.4,88,29.89,10.0,Calm,Calm,-,N/A,,Clear,0,2013-05-16 13:15:00
8:35 AM,59.0,55.4,88,29.90,10.0,NE,4.6,-,N/A,,Clear,50,2013-05-16 13:35:00
8:55 AM,60.8,55.4,82,29.90,10.0,Calm,Calm,-,N/A,,Clear,0,2013-05-16 13:55:00
9:15 AM,62.6,55.4,77,29.90,10.0,Calm,Calm,-,N/A,,Clear,0,2013-05-16 14:15:00
9:35 AM,64.4,55.4,73,29.90,10.0,Calm,Calm,-,N/A,,Clear,0,2013-05-16 14:35:00
9:55 AM,68.0,55.4,64,29.89,10.0,Calm,Calm,-,N/A,,Clear,0,2013-05-16 14:55:00
10:15 AM,69.8,55.4,60,29.88,10.0,Calm,Calm,-,N/A,,Clear,0,2013-05-16 15:15:00
10:35 AM,71.6,55.4,57,29.88,10.0,East,4.6,-,N/A,,Clear,100,2013-05-16 15:35:00
10:55 AM,71.6,55.4,57,29.89,10.0,Calm,Calm,-,N/A,,Clear,0,2013-05-16 15:55:00
11:15 AM,73.4,53.6,50,29.88,10.0,East,3.5,-,N/A,,Clear,80,2013-05-16 16:15:00
11:35 AM,75.2,51.8,44,29.88,10.0,SE,3.5,-,N/A,,Clear,130,2013-05-16 16:35:00
11:55 AM,77.0,53.6,44,29.88,10.0,ESE,5.8,-,N/A,,Clear,120,2013-05-16 16:55:00
12:15 PM,77.0,51.8,41,29.87,10.0,ESE,4.6,-,N/A,,Clear,110,2013-05-16 17:15:00
12:35 PM,78.8,50.0,36,29.87,10.0,East,4.6,-,N/A,,Clear,100,2013-05-16 17:35:00
12:55 PM,78.8,50.0,36,29.86,10.0,Calm,Calm,-,N/A,,Clear,0,2013-05-16 17:55:00
1:15 PM,80.6,50.0,34,29.86,10.0,East,5.8,-,N/A,,Clear,90,2013-05-16 18:15:00
1:55 PM,80.6,50.0,34,29.84,10.0,East,8.1,-,N/A,,Clear,90,2013-05-16 18:55:00
2:15 PM,82.4,50.0,32,29.84,10.0,ENE,5.8,-,N/A,,Clear,70,2013-05-16 19:15:00
2:35 PM,84.2,50.0,30,29.84,10.0,ESE,6.9,17.3,N/A,,Clear,110,2013-05-16 19:35:00
2:55 PM,84.2,48.2,29,29.82,10.0,ESE,5.8,-,N/A,,Clear,110,2013-05-16 19:55:00
3:15 PM,86.0,46.4,25,29.82,10.0,ENE,8.1,-,N/A,,Clear,70,2013-05-16 20:15:00
3:35 PM,87.8,46.4,24,29.81,10.0,East,8.1,19.6,N/A,,Clear,100,2013-05-16 20:35:00
3:55 PM,87.8,46.4,24,29.80,10.0,SE,8.1,19.6,N/A,,Clear,130,2013-05-16 20:55:00
4:15 PM,87.8,46.4,24,29.80,10.0,East,5.8,-,N/A,,Clear,100,2013-05-16 21:15:00
4:35 PM,87.8,46.4,24,29.79,10.0,SE,6.9,-,N/A,,Clear,140,2013-05-16 21:35:00
4:55 PM,87.8,46.4,24,29.79,10.0,SSE,8.1,-,N/A,,Clear,160,2013-05-16 21:55:00
5:35 PM,87.8,46.4,24,29.77,10.0,ESE,11.5,17.3,N/A,,Clear,120,2013-05-16 22:35:00
5:55 PM,87.8,46.4,24,29.76,10.0,ESE,15.0,20.7,N/A,,Clear,120,2013-05-16 22:55:00
6:15 PM,87.8,46.4,24,29.75,10.0,SE,12.7,20.7,N/A,,Clear,130,2013-05-16 23:15:00
6:35 PM,87.8,46.4,24,29.75,10.0,SE,15.0,19.6,N/A,,Clear,140,2013-05-16 23:35:00
6:55 PM,86.0,46.4,25,29.74,10.0,SE,13.8,24.2,N/A,,Clear,140,2013-05-16 23:55:00
7:15 PM,86.0,48.2,27,29.74,10.0,ESE,15.0,23.0,N/A,,Clear,120,2013-05-17 00:15:00
7:35 PM,84.2,48.2,29,29.74,10.0,SE,18.4,24.2,N/A,,Clear,130,2013-05-17 00:35:00
7:55 PM,82.4,50.0,32,29.74,10.0,SE,16.1,-,N/A,,Clear,130,2013-05-17 00:55:00
8:15 PM,80.6,48.2,32,29.74,10.0,SE,17.3,21.9,N/A,,Clear,130,2013-05-17 01:15:00
8:35 PM,78.8,50.0,36,29.75,10.0,SE,17.3,-,N/A,,Clear,130,2013-05-17 01:35:00
8:55 PM,78.8,50.0,36,29.75,10.0,SE,16.1,20.7,N/A,,Clear,140,2013-05-17 01:55:00
9:15 PM,77.0,50.0,39,29.75,10.0,SE,18.4,23.0,N/A,,Clear,140,2013-05-17 02:15:00
9:35 PM,77.0,50.0,39,29.75,10.0,SE,18.4,-,N/A,,Clear,140,2013-05-17 02:35:00
9:55 PM,73.4,53.6,50,29.76,10.0,SE,18.4,28.8,N/A,,Clear,130,2013-05-17 02:55:00
10:15 PM,73.4,53.6,50,29.77,10.0,SE,17.3,29.9,N/A,,Clear,140,2013-05-17 03:15:00
10:35 PM,73.4,55.4,53,29.78,10.0,SE,24.2,28.8,N/A,,Clear,140,2013-05-17 03:35:00
10:55 PM,71.6,55.4,57,29.79,10.0,SE,17.3,28.8,N/A,,Clear,140,2013-05-17 03:55:00
11:15 PM,71.6,55.4,57,29.80,10.0,SE,15.0,24.2,N/A,,Clear,140,2013-05-17 04:15:00
11:35 PM,69.8,57.2,64,29.81,10.0,East,4.6,-,N/A,,Clear,90,2013-05-17 04:35:00
11:55 PM,68.0,57.2,68,29.82,10.0,ESE,6.9,-,N/A,,Clear,120,2013-05-17 04:55:00